CYED/YED METAR and TAF weather

Enter ICAO airport designator
Station Type Date Time Source
CYED METAR 2018/01/22 12:00 UTC NOAA

CYED 221200Z AUTO 18004KT 7SM BKN068 M08/M10 A2970 RMK SLP101


Station Type Date Time Source
CYED Decoded METAR 2018/01/22 12:00 UTC NOAA

Edmonton Namao Alta., Canada (CYED) 53-40N 113-28W 688M
Jan 22, 2018 - 07:00 AM EST / 2018.01.22 1200 UTC
Wind: from the S (180 degrees) at 5 MPH (4 KT):0
Visibility: 7 mile(s):0
Sky conditions: mostly cloudy
Temperature: 17 F (-8 C)
Windchill: 8 F (-13 C):1
Dew Point: 14 F (-10 C)
Relative Humidity: 85%
Pressure (altimeter): 29.7 in. Hg (1005 hPa)
ob: CYED 221200Z AUTO 18004KT 7SM BKN068 M08/M10 A2970 RMK SLP101
cycle: 12

Station Type Date Time Source
CYED TAF 2018/01/20 00:39 UTC NOAA

TAF
AMD TAF
AMD CYED 200536Z 2000/2012 FCST CNCLD DUE END OF FLYING PROGRAM
RMK NXT FCST WILL BE ISSUED AT 221215Z


Example: see airport list